Time;durP1;ratioP1;P1;durP2;ratioP2;P2;SDS_P1;SDS_P2;PMS_P1;PMS_P2;Temp;Humidity;BMP_temperature;BMP_pressure;BME280_temperature;BME280_humidity;BME280_pressure;Samples;Min_cycle;Max_cycle;Signal;HPM_P1;HPM_P2
2022/04/06 00:00:46;;;;;;;7.88;3.90;;;;;;;3.51;100.00;90485.44;4995035;28;20034;-74
2022/04/06 00:03:12;;;;;;;6.30;4.13;;;;;;;3.51;100.00;90496.75;4994766;28;20030;-73
2022/04/06 00:05:37;;;;;;;6.47;3.85;;;;;;;3.53;100.00;90493.81;4994872;28;20095;-73
2022/04/06 00:08:03;;;;;;;8.15;4.28;;;;;;;3.53;100.00;90496.47;4994789;28;20050;-73
2022/04/06 00:10:31;;;;;;;6.32;4.22;;;;;;;3.50;100.00;90499.66;4993486;28;20113;-74
2022/04/06 00:12:57;;;;;;;8.02;4.10;;;;;;;3.40;100.00;90504.97;4994611;28;20121;-74
2022/04/06 00:15:23;;;;;;;6.47;3.70;;;;;;;3.35;100.00;90512.91;4994985;28;20072;-74
2022/04/06 00:17:48;;;;;;;8.65;4.20;;;;;;;3.21;100.00;90497.75;4994667;28;20050;-74
2022/04/06 00:20:14;;;;;;;4.90;3.42;;;;;;;3.14;100.00;90499.13;4994702;28;20093;-74
2022/04/06 00:22:40;;;;;;;5.55;4.30;;;;;;;3.12;100.00;90496.75;4994774;28;20054;-74
2022/04/06 00:25:06;;;;;;;4.57;3.47;;;;;;;3.11;100.00;90502.28;4994343;28;20690;-74
2022/04/06 00:27:32;;;;;;;8.70;3.85;;;;;;;2.99;100.00;90500.00;4994456;28;20451;-74
2022/04/06 00:29:58;;;;;;;5.85;3.95;;;;;;;2.97;100.00;90508.16;4994445;28;20026;-74
2022/04/06 00:32:24;;;;;;;5.97;3.72;;;;;;;2.96;100.00;90500.56;4994349;28;20031;-74
2022/04/06 00:37:34;;;;;;;7.32;3.90;;;;;;;2.96;100.00;90497.94;4994192;28;20032;-74
2022/04/06 00:40:00;;;;;;;3.75;3.38;;;;;;;3.00;100.00;90486.63;4993924;28;20415;-74
2022/04/06 00:42:25;;;;;;;5.15;3.90;;;;;;;2.94;100.00;90486.91;4994045;28;20041;-74
2022/04/06 00:44:51;;;;;;;5.25;3.55;;;;;;;3.06;100.00;90492.63;4994090;28;20062;-74
2022/04/06 00:47:16;;;;;;;5.15;3.90;;;;;;;3.13;100.00;90497.56;4994054;28;20029;-74
2022/04/06 00:49:42;;;;;;;5.05;3.70;;;;;;;3.02;100.00;90486.34;4994115;28;20022;-74
2022/04/06 00:52:08;;;;;;;6.43;3.65;;;;;;;2.96;100.00;90495.31;4993969;28;20033;-74
2022/04/06 00:54:35;;;;;;;4.88;3.78;;;;;;;2.86;100.00;90495.38;4994016;28;20041;-74
2022/04/06 00:57:01;;;;;;;4.78;3.55;;;;;;;2.67;100.00;90497.84;4993879;28;20417;-74
2022/04/06 00:59:29;;;;;;;5.25;3.95;;;;;;;2.59;100.00;90491.31;4993930;28;20041;-74
2022/04/06 01:01:56;;;;;;;5.63;3.97;;;;;;;2.54;100.00;90503.72;4993777;28;20096;-74
2022/04/06 01:04:22;;;;;;;5.50;3.95;;;;;;;2.52;100.00;90493.44;4992547;28;20027;-74
2022/04/06 01:06:49;;;;;;;5.70;3.70;;;;;;;2.49;100.00;90491.38;4993723;28;20046;-74
2022/04/06 01:09:18;;;;;;;7.85;4.18;;;;;;;2.52;100.00;90501.31;4993883;28;20033;-74
2022/04/06 01:11:45;;;;;;;7.10;4.50;;;;;;;2.45;100.00;90495.59;4993539;28;20053;-74
2022/04/06 01:14:12;;;;;;;7.35;3.70;;;;;;;2.41;100.00;90499.81;4992332;28;20030;-75
2022/04/06 01:16:37;;;;;;;6.72;4.30;;;;;;;2.42;100.00;90496.16;4992246;28;20062;-75
2022/04/06 01:19:03;;;;;;;7.75;4.32;;;;;;;2.45;100.00;90490.34;4993478;28;20069;-74
2022/04/06 01:21:29;;;;;;;4.25;3.65;;;;;;;2.60;100.00;90492.91;4993375;28;20381;-74
2022/04/06 01:23:54;;;;;;;7.38;4.30;;;;;;;2.62;100.00;90496.03;4992158;28;20030;-74
2022/04/06 01:26:20;;;;;;;8.02;4.63;;;;;;;2.72;100.00;90504.91;4993229;28;20046;-74
2022/04/06 01:28:45;;;;;;;7.93;5.30;;;;;;;2.72;100.00;90500.47;4993280;28;20026;-74
2022/04/06 01:31:11;;;;;;;9.30;5.15;;;;;;;2.67;100.00;90498.63;4993387;28;20034;-74
2022/04/06 01:33:37;;;;;;;9.70;4.80;;;;;;;2.77;100.00;90499.63;4993477;28;20034;-74
2022/04/06 01:36:03;;;;;;;7.60;4.70;;;;;;;2.81;100.00;90498.81;4993295;28;20467;-73
2022/04/06 01:38:29;;;;;;;9.05;4.60;;;;;;;2.81;100.00;90484.88;4993163;28;20027;-73
2022/04/06 01:40:55;;;;;;;6.20;4.20;;;;;;;2.84;100.00;90500.91;4993062;28;20428;-73
2022/04/06 01:43:21;;;;;;;7.15;4.38;;;;;;;2.81;100.00;90496.19;4993029;28;20030;-73
2022/04/06 01:45:47;;;;;;;8.18;4.65;;;;;;;2.72;100.00;90502.28;4993047;28;20038;-73
2022/04/06 01:48:16;;;;;;;5.65;3.63;;;;;;;2.72;100.00;90499.66;4992871;28;20033;-73
2022/04/06 01:53:28;;;;;;;6.10;3.70;;;;;;;2.79;100.00;90508.81;4992886;28;20118;-72
2022/04/06 01:55:54;;;;;;;4.75;3.00;;;;;;;2.69;100.00;90491.28;4992873;28;20109;-72
2022/04/06 01:58:20;;;;;;;5.10;3.60;;;;;;;2.70;100.00;90502.56;4992827;28;20025;-72
2022/04/06 02:00:46;;;;;;;6.47;3.58;;;;;;;2.68;100.00;90502.84;4992691;28;20489;-72
2022/04/06 02:03:11;;;;;;;5.97;3.85;;;;;;;2.67;100.00;90503.09;4992735;28;20550;-72
2022/04/06 02:05:37;;;;;;;4.95;3.40;;;;;;;2.69;100.00;90501.00;4992664;28;20030;-73
2022/04/06 02:08:03;;;;;;;4.57;3.47;;;;;;;2.79;100.00;90498.28;4992530;28;20029;-73
2022/04/06 02:10:29;;;;;;;7.45;3.10;;;;;;;2.80;100.00;90497.25;4992559;28;20030;-73
2022/04/06 02:12:56;;;;;;;4.93;3.42;;;;;;;2.80;100.00;90499.09;4991114;28;20038;-73
2022/04/06 02:15:23;;;;;;;4.35;3.17;;;;;;;2.73;100.00;90501.25;4992430;28;20045;-73
2022/04/06 02:17:49;;;;;;;6.93;3.22;;;;;;;2.62;100.00;90498.66;4992387;28;20133;-73
2022/04/06 02:20:15;;;;;;;4.22;2.85;;;;;;;2.59;100.00;90495.78;4992428;28;20030;-74
2022/04/06 02:22:41;;;;;;;4.70;3.67;;;;;;;2.52;100.00;90501.31;4992275;28;20030;-73
2022/04/06 02:25:08;;;;;;;5.13;4.07;;;;;;;2.55;100.00;90507.91;4992077;28;20113;-73
2022/04/06 02:27:33;;;;;;;4.93;3.70;;;;;;;2.49;100.00;90508.97;4992190;28;20465;-73
2022/04/06 02:29:58;;;;;;;6.47;3.85;;;;;;;2.45;100.00;90502.69;4992229;28;20033;-73
2022/04/06 02:32:24;;;;;;;7.22;4.07;;;;;;;2.50;100.00;90503.44;4992643;28;20027;-73
2022/04/06 02:34:49;;;;;;;6.75;3.88;;;;;;;2.47;100.00;90501.34;4992916;28;20510;-75
2022/04/06 02:37:15;;;;;;;4.13;2.88;;;;;;;2.54;100.00;90512.38;4992097;28;20037;-76
2022/04/06 02:39:40;;;;;;;3.92;3.33;;;;;;;2.49;100.00;90509.75;4992093;28;20109;-74
2022/04/06 02:42:07;;;;;;;4.90;3.65;;;;;;;2.41;100.00;90502.44;4991959;28;20030;-74
2022/04/06 02:44:33;;;;;;;5.32;3.42;;;;;;;2.47;100.00;90513.69;4991967;28;20422;-76
2022/04/06 02:46:58;;;;;;;4.10;3.40;;;;;;;2.40;100.00;90509.53;4990600;28;20034;-74
2022/04/06 02:49:24;;;;;;;4.65;3.53;;;;;;;2.40;100.00;90508.75;4991697;28;20030;-74
2022/04/06 02:51:50;;;;;;;5.78;3.35;;;;;;;2.43;100.00;90518.72;4991730;28;20105;-75
2022/04/06 02:54:15;;;;;;;5.72;4.15;;;;;;;2.50;100.00;90516.56;4991546;28;20030;-73
2022/04/06 02:56:41;;;;;;;4.15;3.25;;;;;;;2.57;100.00;90511.81;4991806;28;20034;-73
2022/04/06 02:59:06;;;;;;;5.05;3.42;;;;;;;2.53;100.00;90518.69;4990451;28;20053;-74
2022/04/06 03:01:32;;;;;;;3.65;3.10;;;;;;;2.60;100.00;90521.00;4991568;28;20030;-74
2022/04/06 03:03:57;;;;;;;3.25;2.85;;;;;;;2.58;100.00;90523.91;4991708;28;20093;-74
2022/04/06 03:06:24;;;;;;;5.40;3.40;;;;;;;2.54;100.00;90515.00;4991692;28;20118;-74
2022/04/06 03:08:50;;;;;;;6.50;3.08;;;;;;;2.49;100.00;90522.88;4991636;28;20113;-75
2022/04/06 03:11:15;;;;;;;4.10;3.00;;;;;;;2.47;100.00;90530.25;4991545;28;20113;-73
2022/04/06 03:13:41;;;;;;;3.45;3.00;;;;;;;2.36;100.00;90518.19;4991629;28;20034;-75
2022/04/06 03:16:07;;;;;;;7.20;3.00;;;;;;;2.41;100.00;90523.44;4991627;28;20061;-75
2022/04/06 03:18:32;;;;;;;3.85;2.92;;;;;;;2.35;100.00;90522.66;4991586;28;20031;-71
2022/04/06 03:20:58;;;;;;;4.18;3.25;;;;;;;2.33;100.00;90522.16;4991401;28;20089;-75
2022/04/06 03:23:23;;;;;;;4.78;3.05;;;;;;;2.40;100.00;90519.25;4989720;28;20030;-74
2022/04/06 03:25:49;;;;;;;5.13;2.78;;;;;;;2.48;100.00;90518.69;4991391;28;20496;-74
2022/04/06 03:28:15;;;;;;;3.17;2.58;;;;;;;2.52;100.00;90527.59;4991439;28;20516;-74
2022/04/06 03:30:41;;;;;;;5.35;3.33;;;;;;;2.56;100.00;90523.38;4991251;28;20030;-75
2022/04/06 03:33:09;;;;;;;4.32;2.97;;;;;;;2.46;100.00;90507.66;4991406;28;20030;-74
2022/04/06 03:35:38;;;;;;;5.10;3.00;;;;;;;2.49;100.00;90532.59;4990218;28;20022;-73
2022/04/06 03:38:04;;;;;;;4.05;3.30;;;;;;;2.42;100.00;90532.09;4991378;28;20034;-73
2022/04/06 03:40:29;;;;;;;4.95;3.10;;;;;;;2.37;100.00;90536.34;4991402;28;20042;-73
2022/04/06 03:42:56;;;;;;;5.35;3.67;;;;;;;2.34;100.00;90531.59;4991483;28;20046;-74
2022/04/06 03:45:21;;;;;;;5.63;3.60;;;;;;;2.25;100.00;90532.44;4991239;28;20058;-73
2022/04/06 03:47:47;;;;;;;6.80;4.45;;;;;;;2.23;100.00;90537.16;4991208;28;20113;-74
2022/04/06 03:50:13;;;;;;;10.27;4.38;;;;;;;2.24;100.00;90536.13;4991294;28;20042;-73
2022/04/06 03:52:39;;;;;;;10.48;5.03;;;;;;;2.10;100.00;90531.44;4991193;28;20042;-73
2022/04/06 03:55:07;;;;;;;6.70;4.43;;;;;;;2.17;100.00;90535.59;4991192;28;20026;-73
2022/04/06 03:57:33;;;;;;;11.60;5.40;;;;;;;2.13;100.00;90548.47;4991512;28;20030;-74
2022/04/06 03:59:59;;;;;;;9.25;4.90;;;;;;;2.12;100.00;90541.66;4991523;28;20038;-73
2022/04/06 04:02:24;;;;;;;7.15;4.05;;;;;;;2.10;100.00;90552.41;4990967;28;20037;-74
2022/04/06 04:04:50;;;;;;;5.22;3.72;;;;;;;2.09;100.00;90548.22;4991158;28;20554;-74
2022/04/06 04:07:22;;;;;;;6.28;3.85;;;;;;;2.10;100.00;90557.66;4991015;28;20049;-74
2022/04/06 04:09:48;;;;;;;10.27;4.43;;;;;;;2.03;100.00;90556.34;4991144;28;20034;-75
2022/04/06 04:12:14;;;;;;;10.55;4.50;;;;;;;2.00;100.00;90560.31;4991219;28;20034;-74
2022/04/06 04:14:39;;;;;;;7.32;4.60;;;;;;;1.97;100.00;90560.84;4993813;28;20030;-76
2022/04/06 04:17:05;;;;;;;7.03;4.90;;;;;;;1.94;100.00;90564.00;4987497;28;20077;-72
2022/04/06 04:19:30;;;;;;;5.90;4.38;;;;;;;1.95;100.00;90568.19;4994300;28;20481;-74
2022/04/06 04:21:56;;;;;;;9.23;4.93;;;;;;;2.02;100.00;90570.53;4994246;28;20035;-72
2022/04/06 04:24:21;;;;;;;10.85;4.28;;;;;;;2.19;100.00;90578.09;4994152;28;20117;-74
2022/04/06 04:26:47;;;;;;;10.52;4.10;;;;;;;2.26;100.00;90571.53;4993677;28;20054;-74
2022/04/06 04:29:13;;;;;;;7.38;3.75;;;;;;;2.36;100.00;90571.47;4994223;28;20036;-74
2022/04/06 04:31:39;;;;;;;7.50;3.72;;;;;;;2.44;100.00;90580.66;4993877;28;20034;-72
2022/04/06 04:34:04;;;;;;;9.70;4.10;;;;;;;2.41;100.00;90562.81;4994129;28;20026;-71
2022/04/06 04:36:30;;;;;;;7.65;4.03;;;;;;;2.49;100.00;90575.38;4993123;28;20496;-72
2022/04/06 04:38:56;;;;;;;8.07;4.93;;;;;;;2.77;100.00;90576.59;4994052;28;20117;-71
2022/04/06 04:41:22;;;;;;;10.80;4.72;;;;;;;3.26;100.00;90581.81;4993872;28;20105;-72
2022/04/06 04:43:50;;;;;;;8.63;4.75;;;;;;;4.08;100.00;90586.47;4994018;28;20110;-69
2022/04/06 04:46:17;;;;;;;10.32;4.03;;;;;;;4.95;92.72;90576.56;4993412;28;20084;-71
2022/04/06 04:48:43;;;;;;;9.10;4.10;;;;;;;5.90;86.06;90585.28;4993798;28;20109;-72
2022/04/06 04:51:08;;;;;;;7.20;4.82;;;;;;;7.18;77.27;90587.19;4993668;28;20139;-70
2022/04/06 04:53:34;;;;;;;6.88;4.15;;;;;;;8.17;70.13;90591.59;4993760;28;20604;-69
2022/04/06 04:55:59;;;;;;;9.65;4.47;;;;;;;8.23;69.32;90587.78;4993674;28;20524;-68
2022/04/06 04:58:26;;;;;;;11.73;4.88;;;;;;;7.92;69.08;90590.34;4993720;28;20036;-69
2022/04/06 05:00:54;;;;;;;11.77;5.45;;;;;;;7.62;70.86;90591.03;4993065;28;20116;-71
2022/04/06 05:03:19;;;;;;;7.50;3.75;;;;;;;6.72;72.80;90598.66;4993837;28;20034;-70
2022/04/06 05:05:48;;;;;;;9.75;5.78;;;;;;;7.37;72.11;90579.91;4993445;28;20036;-70
2022/04/06 05:08:14;;;;;;;9.07;5.03;;;;;;;9.42;64.47;90589.69;4993350;28;20034;-71
2022/04/06 05:10:39;;;;;;;8.73;5.40;;;;;;;10.32;60.70;90582.75;4993415;28;20519;-65
2022/04/06 05:13:05;;;;;;;9.65;6.03;;;;;;;11.93;54.52;90577.41;4993486;28;20026;-66
2022/04/06 05:15:31;;;;;;;14.63;5.35;;;;;;;13.04;50.21;90583.94;4993070;28;20463;-67
2022/04/06 05:17:56;;;;;;;9.20;5.43;;;;;;;13.94;47.26;90586.44;4993411;28;20764;-68
2022/04/06 05:20:22;;;;;;;18.80;7.85;;;;;;;15.42;44.82;90590.09;4993046;28;20396;-68
2022/04/06 05:22:47;;;;;;;12.77;5.70;;;;;;;14.08;45.55;90591.44;4993166;28;20109;-68
2022/04/06 05:25:13;;;;;;;10.52;4.82;;;;;;;13.01;46.93;90603.28;4991713;28;20038;-67
2022/04/06 05:27:49;;;;;;;9.05;4.95;;;;;;;14.87;44.53;90602.47;4992641;28;20528;-67
2022/04/06 05:30:16;;;;;;;9.88;4.60;;;;;;;16.71;40.92;90605.28;4992586;28;20034;-68
2022/04/06 05:32:43;;;;;;;5.75;4.13;;;;;;;17.92;38.72;90602.13;4992790;28;20101;-69
2022/04/06 05:35:09;;;;;;;10.32;4.47;;;;;;;18.50;37.65;90593.75;4991575;28;20030;-69
2022/04/06 05:37:41;;;;;;;17.33;4.63;;;;;;;18.37;37.13;90592.41;4992069;28;20037;-68
2022/04/06 05:40:09;;;;;;;15.00;5.70;;;;;;;18.83;36.45;90603.81;4992681;28;20026;-68
2022/04/06 05:42:34;;;;;;;9.55;5.78;;;;;;;19.22;35.99;90606.19;4992618;28;20033;-66
2022/04/06 05:45:00;;;;;;;12.02;5.75;;;;;;;21.01;33.78;90611.88;4992224;28;20026;-67
2022/04/06 05:47:26;;;;;;;6.82;5.22;;;;;;;21.87;32.05;90608.28;4992592;28;20022;-67
2022/04/06 05:49:52;;;;;;;13.20;8.30;;;;;;;22.66;31.57;90609.84;4992606;28;20057;-67
2022/04/06 05:52:17;;;;;;;35.53;7.35;;;;;;;22.89;30.94;90614.13;4991812;28;20623;-69
2022/04/06 05:54:43;;;;;;;28.15;7.15;;;;;;;22.05;31.74;90616.47;4992805;28;20420;-68
2022/04/06 05:57:08;;;;;;;19.88;7.43;;;;;;;22.21;31.99;90624.97;4992625;28;20046;-68
2022/04/06 05:59:34;;;;;;;10.98;5.15;;;;;;;24.55;29.65;90617.13;4992741;28;20034;-68
2022/04/06 06:02:00;;;;;;;11.25;7.05;;;;;;;25.02;29.16;90623.72;4992674;28;20033;-68
2022/04/06 06:04:25;;;;;;;13.93;5.70;;;;;;;26.10;28.94;90625.94;4992729;28;20038;-68
2022/04/06 06:06:50;;;;;;;12.07;5.13;;;;;;;25.55;28.91;90619.59;4992914;28;20160;-68
2022/04/06 06:09:16;;;;;;;11.30;6.57;;;;;;;24.03;31.58;90610.91;4992477;28;21148;-68
2022/04/06 06:11:41;;;;;;;7.13;4.85;;;;;;;24.89;31.31;90613.69;4992474;28;20037;-68
2022/04/06 06:14:08;;;;;;;14.75;6.35;;;;;;;25.28;30.73;90608.66;4992492;28;20157;-68
2022/04/06 06:16:34;;;;;;;10.57;5.05;;;;;;;24.40;31.76;90616.47;4992765;28;20033;-68
2022/04/06 06:18:59;;;;;;;20.08;7.25;;;;;;;24.56;32.50;90615.94;4992364;28;20400;-68
2022/04/06 06:21:26;;;;;;;11.55;6.57;;;;;;;24.30;32.24;90617.34;4992319;28;20034;-68
2022/04/06 06:23:53;;;;;;;10.55;5.40;;;;;;;25.55;30.86;90621.56;4992335;28;20092;-68
2022/04/06 06:26:19;;;;;;;20.05;6.55;;;;;;;25.93;30.34;90617.59;4992073;28;20504;-68
2022/04/06 06:28:45;;;;;;;17.13;7.18;;;;;;;25.66;30.54;90622.19;4992222;28;20041;-68
2022/04/06 06:31:10;;;;;;;21.10;5.60;;;;;;;26.92;29.59;90624.66;4991811;28;20027;-68
2022/04/06 06:33:36;;;;;;;10.15;4.40;;;;;;;25.63;30.99;90623.03;4992116;28;20040;-68
2022/04/06 06:36:01;;;;;;;22.10;6.65;;;;;;;26.22;30.46;90619.94;4991746;28;20037;-68
2022/04/06 06:38:27;;;;;;;10.07;5.03;;;;;;;27.94;28.60;90618.47;4992124;28;20034;-68
2022/04/06 06:40:53;;;;;;;7.60;4.90;;;;;;;28.06;28.89;90620.53;4992016;28;20042;-68
2022/04/06 06:43:19;;;;;;;8.93;4.55;;;;;;;28.38;29.15;90619.09;4991967;28;20101;-68
2022/04/06 06:45:45;;;;;;;12.20;4.75;;;;;;;26.88;30.00;90622.00;4991981;28;20042;-68
2022/04/06 06:48:11;;;;;;;7.28;4.70;;;;;;;25.33;31.58;90623.78;4991924;28;20026;-68
2022/04/06 06:50:36;;;;;;;7.70;4.60;;;;;;;26.74;30.09;90622.25;4992087;28;20053;-68
2022/04/06 06:53:02;;;;;;;19.23;5.45;;;;;;;27.29;30.01;90629.88;4991858;28;20027;-68
2022/04/06 06:55:28;;;;;;;13.07;5.25;;;;;;;27.11;29.62;90616.53;4992121;28;20419;-68
2022/04/06 06:57:53;;;;;;;9.75;4.85;;;;;;;27.37;29.46;90622.31;4992079;28;20045;-68
2022/04/06 07:00:19;;;;;;;14.82;4.78;;;;;;;28.30;28.32;90622.00;4991746;28;20038;-69
2022/04/06 07:02:45;;;;;;;25.30;10.50;;;;;;;29.44;27.78;90624.69;4991746;28;20101;-68
2022/04/06 07:05:11;;;;;;;15.52;6.78;;;;;;;27.82;28.54;90621.84;4991558;28;20456;-68
2022/04/06 07:07:57;;;;;;;11.60;4.82;;;;;;;27.18;30.31;90621.13;4991683;28;20032;-67
2022/04/06 07:10:24;;;;;;;24.83;11.55;;;;;;;27.28;29.53;90633.78;4991675;28;20038;-68
2022/04/06 07:12:51;;;;;;;8.85;4.95;;;;;;;27.57;29.49;90623.09;4991621;28;20042;-68
2022/04/06 07:15:16;;;;;;;35.88;24.80;;;;;;;27.57;29.55;90634.03;4991576;28;20054;-68
2022/04/06 07:17:42;;;;;;;47.95;33.58;;;;;;;28.66;27.72;90634.84;4991682;28;20105;-68
2022/04/06 07:20:09;;;;;;;13.68;5.72;;;;;;;27.41;28.31;90626.53;4990258;28;20030;-68
2022/04/06 07:22:34;;;;;;;13.95;8.98;;;;;;;27.66;28.67;90636.25;4991639;28;20037;-68
2022/04/06 07:25:00;;;;;;;25.45;10.55;;;;;;;25.24;29.99;90632.41;4991533;28;20030;-68
2022/04/06 07:27:26;;;;;;;45.92;32.88;;;;;;;25.53;31.45;90627.41;4991336;28;20092;-68
2022/04/06 07:29:53;;;;;;;32.05;21.83;;;;;;;26.44;30.96;90636.75;4991501;28;20110;-68
2022/04/06 07:32:19;;;;;;;56.78;8.63;;;;;;;25.88;30.43;90631.69;4991394;28;20034;-68
2022/04/06 07:34:44;;;;;;;18.83;7.53;;;;;;;27.24;29.68;90632.31;4991514;28;20117;-68
2022/04/06 07:37:10;;;;;;;22.70;7.15;;;;;;;29.79;27.33;90628.44;4991421;28;20105;-68
2022/04/06 07:39:35;;;;;;;48.47;9.30;;;;;;;29.59;26.44;90640.78;4991447;28;20099;-68
2022/04/06 07:42:01;;;;;;;47.08;14.45;;;;;;;27.04;29.16;90630.34;4991219;28;20411;-68
2022/04/06 07:44:27;;;;;;;25.70;8.38;;;;;;;26.49;28.25;90637.06;4991329;28;20393;-68
2022/04/06 07:46:52;;;;;;;22.98;7.60;;;;;;;28.28;26.27;90632.59;4991339;28;20041;-68
2022/04/06 07:49:18;;;;;;;130.18;84.07;;;;;;;29.15;26.96;90632.88;4993561;28;20117;-69
2022/04/06 07:51:45;;;;;;;332.13;271.75;;;;;;;29.75;26.46;90638.00;4995126;28;20045;-68
2022/04/06 07:54:11;;;;;;;35.38;19.75;;;;;;;29.00;26.03;90628.97;4995194;28;20134;-68
2022/04/06 07:56:37;;;;;;;26.45;17.80;;;;;;;27.70;26.73;90634.97;4995137;28;20556;-68
2022/04/06 07:59:03;;;;;;;12.32;5.03;;;;;;;26.46;26.03;90632.44;4995003;28;20034;-68
2022/04/06 08:01:28;;;;;;;9.77;5.10;;;;;;;26.26;27.04;90618.69;4994872;28;20075;-68
2022/04/06 08:03:54;;;;;;;24.45;5.07;;;;;;;27.64;25.26;90633.94;4995147;28;20416;-68
2022/04/06 08:06:19;;;;;;;14.38;4.82;;;;;;;28.47;24.77;90627.50;4994930;28;20496;-68
2022/04/06 08:08:45;;;;;;;18.13;8.55;;;;;;;28.41;25.01;90629.97;4994732;28;20054;-68
2022/04/06 08:11:10;;;;;;;26.90;8.23;;;;;;;27.44;24.93;90624.91;4994726;28;20116;-68
2022/04/06 08:13:36;;;;;;;14.30;3.45;;;;;;;27.98;25.22;90621.91;4994792;28;20112;-68
2022/04/06 08:16:01;;;;;;;20.60;5.38;;;;;;;27.95;24.97;90625.50;4994678;28;20385;-68
2022/04/06 08:18:28;;;;;;;8.82;3.38;;;;;;;29.45;24.47;90626.22;4994609;28;20030;-68
2022/04/06 08:20:54;;;;;;;9.05;3.33;;;;;;;28.16;25.07;90621.53;4994625;28;20167;-68
2022/04/06 08:23:20;;;;;;;16.67;7.40;;;;;;;28.04;24.14;90623.72;4994617;28;20508;-68
2022/04/06 08:25:46;;;;;;;11.98;3.30;;;;;;;28.34;24.61;90624.66;4994386;28;20042;-68
2022/04/06 08:28:12;;;;;;;8.43;2.97;;;;;;;28.37;24.45;90626.53;4993275;28;20401;-68
2022/04/06 08:30:42;;;;;;;17.20;3.65;;;;;;;26.88;26.30;90624.75;4994314;28;20034;-68
2022/04/06 08:33:09;;;;;;;5.57;3.88;;;;;;;27.81;26.01;90620.31;4994336;28;20037;-68
2022/04/06 08:35:35;;;;;;;23.20;8.73;;;;;;;29.49;24.32;90623.41;4994397;28;20607;-68
2022/04/06 08:38:03;;;;;;;33.17;6.03;;;;;;;28.43;25.24;90624.84;4994358;28;20030;-68
2022/04/06 08:40:30;;;;;;;17.75;3.33;;;;;;;24.70;28.32;90618.53;4994075;28;20039;-68
2022/04/06 08:42:57;;;;;;;37.80;7.32;;;;;;;24.86;29.14;90617.25;4993980;28;20042;-68
2022/04/06 08:45:22;;;;;;;25.33;3.95;;;;;;;26.04;29.10;90614.72;4994164;28;20030;-68
2022/04/06 08:47:49;;;;;;;13.30;4.43;;;;;;;26.23;27.71;90611.31;4994020;28;20511;-68
2022/04/06 08:50:20;;;;;;;18.83;6.18;;;;;;;26.25;27.35;90616.38;4994030;28;20030;-69
2022/04/06 08:52:46;;;;;;;29.15;4.68;;;;;;;24.42;28.69;90616.06;4994023;28;20057;-68
2022/04/06 08:55:15;;;;;;;7.55;3.05;;;;;;;27.04;26.00;90613.94;4993945;28;20030;-68
2022/04/06 08:57:41;;;;;;;4.75;2.90;;;;;;;26.34;26.96;90619.31;4993923;28;20026;-68
2022/04/06 09:00:07;;;;;;;123.90;13.05;;;;;;;26.66;25.96;90612.63;4993417;28;20041;-68
2022/04/06 09:02:32;;;;;;;18.52;4.00;;;;;;;23.89;27.94;90609.03;4993905;28;20036;-68
2022/04/06 09:05:01;;;;;;;35.30;4.57;;;;;;;23.30;29.37;90608.91;4993745;28;20113;-68
2022/04/06 09:07:26;;;;;;;15.60;5.43;;;;;;;23.33;28.12;90605.41;4993684;28;20026;-68
2022/04/06 09:09:53;;;;;;;7.50;3.00;;;;;;;24.92;26.93;90602.00;4993755;28;20035;-68
2022/04/06 09:12:22;;;;;;;8.27;3.80;;;;;;;23.40;27.92;90599.97;4993795;28;20034;-68
2022/04/06 09:14:49;;;;;;;7.90;3.50;;;;;;;22.21;30.96;90603.31;4993601;28;20108;-68
2022/04/06 09:17:22;;;;;;;70.32;7.00;;;;;;;24.67;28.06;90596.81;4993761;28;20041;-68
2022/04/06 09:19:49;;;;;;;7.57;3.42;;;;;;;22.94;30.02;90589.28;4993596;28;20116;-68
2022/04/06 09:22:15;;;;;;;21.58;4.75;;;;;;;23.94;28.76;90592.31;4993608;28;20034;-68
2022/04/06 09:24:41;;;;;;;15.88;7.10;;;;;;;22.18;29.77;90589.75;4993670;28;20165;-68
2022/04/06 09:27:06;;;;;;;9.45;5.70;;;;;;;23.54;28.81;90586.31;4993259;28;20125;-68
2022/04/06 09:29:35;;;;;;;15.43;2.75;;;;;;;25.50;26.78;90586.59;4993022;28;20101;-68
2022/04/06 09:32:08;;;;;;;26.70;5.72;;;;;;;26.07;27.50;90586.66;4993222;28;20042;-68
2022/04/06 09:34:34;;;;;;;8.55;5.10;;;;;;;25.15;27.34;90580.41;4993299;28;20045;-68
2022/04/06 09:37:23;;;;;;;7.57;2.70;;;;;;;27.69;25.49;90576.03;4993189;28;20046;-68
2022/04/06 09:39:49;;;;;;;11.73;7.93;;;;;;;25.73;25.79;90577.78;4993143;28;20101;-68
2022/04/06 09:42:23;;;;;;;63.83;14.18;;;;;;;24.90;27.76;90571.72;4993012;28;20046;-68
2022/04/06 09:47:40;;;;;;;36.78;7.88;;;;;;;27.65;27.30;90558.19;4993194;28;20519;-68
2022/04/06 09:50:09;;;;;;;10.80;4.88;;;;;;;26.12;26.11;90574.50;4991586;28;20492;-68
2022/04/06 09:52:36;;;;;;;35.80;5.72;;;;;;;24.95;27.20;90563.88;4992840;28;20052;-68
2022/04/06 09:55:06;;;;;;;38.88;8.70;;;;;;;24.52;29.43;90557.34;4992845;28;20042;-68
2022/04/06 09:57:44;;;;;;;23.00;5.40;;;;;;;25.31;28.33;90556.09;4992675;28;20053;-68
2022/04/06 10:00:13;;;;;;;17.70;7.93;;;;;;;23.63;29.68;90557.97;4992498;28;20049;-68
2022/04/06 10:02:40;;;;;;;40.55;5.28;;;;;;;23.28;29.63;90556.97;4991464;28;20064;-68
2022/04/06 10:05:08;;;;;;;5.57;2.30;;;;;;;23.75;29.94;90555.56;4992638;28;20057;-68
2022/04/06 10:07:34;;;;;;;8.07;5.70;;;;;;;24.75;27.93;90552.81;4992539;28;20530;-68
2022/04/06 10:10:00;;;;;;;9.73;2.78;;;;;;;24.66;27.53;90546.31;4992433;28;20049;-68
2022/04/06 10:12:26;;;;;;;14.02;3.63;;;;;;;24.70;29.68;90549.78;4991849;28;20066;-68
2022/04/06 10:14:53;;;;;;;10.95;7.35;;;;;;;25.24;28.61;90552.69;4992337;28;20097;-68
2022/04/06 10:17:19;;;;;;;10.05;4.00;;;;;;;25.57;28.79;90540.22;4992316;28;20046;-68
2022/04/06 10:19:50;;;;;;;6.00;3.60;;;;;;;24.10;28.83;90542.91;4992304;28;20121;-68
2022/04/06 10:23:04;;;;;;;13.80;3.72;;;;;;;25.56;28.96;90538.66;4992202;28;20042;-68
2022/04/06 10:25:58;;;;;;;11.30;4.60;;;;;;;25.04;28.90;90530.75;4988874;28;20054;-68
2022/04/06 10:28:24;;;;;;;7.47;3.38;;;;;;;24.45;30.75;90514.66;4991997;28;20416;-68
2022/04/06 10:31:12;;;;;;;9.57;7.97;;;;;;;25.65;27.91;90528.81;4991975;28;20041;-68
2022/04/06 10:33:39;;;;;;;23.88;12.63;;;;;;;25.66;29.36;90521.41;4985575;28;20050;-68
2022/04/06 10:36:23;;;;;;;17.92;4.13;;;;;;;26.80;26.58;90514.13;4992064;28;20041;-68
2022/04/06 10:39:04;;;;;;;10.82;3.50;;;;;;;25.07;27.94;90516.34;4991912;28;20056;-68
2022/04/06 10:41:29;;;;;;;13.90;6.03;;;;;;;26.15;28.21;90510.94;4991833;28;20117;-68
2022/04/06 10:43:56;;;;;;;18.95;4.93;;;;;;;23.50;30.29;90503.31;4991972;28;20060;-68
2022/04/06 10:46:38;;;;;;;59.63;12.80;;;;;;;24.97;28.10;90503.63;4991984;28;20041;-68
2022/04/06 10:49:06;;;;;;;44.42;27.10;;;;;;;25.95;28.49;90511.66;4991922;28;20046;-68
2022/04/06 10:51:34;;;;;;;28.20;13.43;;;;;;;27.20;26.79;90506.00;4991729;28;20113;-68
2022/04/06 10:54:23;;;;;;;49.22;11.07;;;;;;;25.28;27.65;90504.41;4992092;28;20034;-68
2022/04/06 10:56:53;;;;;;;14.50;5.93;;;;;;;25.25;29.04;90497.84;4991824;28;20055;-70
2022/04/06 10:59:19;;;;;;;9.70;6.35;;;;;;;26.31;27.13;90497.44;4991762;28;20055;-68
2022/04/06 11:01:48;;;;;;;10.68;6.28;;;;;;;23.71;29.68;90492.38;4991681;28;20034;-68
2022/04/06 11:04:17;;;;;;;6.38;5.18;;;;;;;23.17;29.44;90480.25;4991066;28;20053;-67
2022/04/06 11:06:49;;;;;;;89.32;7.93;;;;;;;24.98;29.89;90497.75;4991607;28;20039;-67
2022/04/06 11:12:22;;;;;;;38.58;5.65;;;;;;;24.01;30.93;90488.25;4971486;28;20058;-67
2022/04/06 11:14:53;;;;;;;41.75;6.75;;;;;;;24.44;28.32;90481.25;4971817;28;20049;-66
2022/04/06 11:17:45;;;;;;;6.50;2.83;;;;;;;24.75;30.11;90482.06;4971930;28;20500;-67
2022/04/06 11:20:17;;;;;;;7.10;3.97;;;;;;;25.27;29.84;90481.09;4971425;28;20065;-68
2022/04/06 11:22:44;;;;;;;19.05;6.07;;;;;;;26.59;28.49;90473.59;4973418;28;20516;-69
2022/04/06 11:25:20;;;;;;;5.63;3.10;;;;;;;25.03;29.33;90469.34;4975934;28;20150;-72
2022/04/06 11:27:47;;;;;;;33.75;8.63;;;;;;;24.74;28.91;90463.44;4975866;28;20122;-69
2022/04/06 11:30:13;;;;;;;9.55;3.15;;;;;;;24.59;30.44;90468.28;4975548;28;20139;-71
2022/04/06 11:32:50;;;;;;;15.68;3.38;;;;;;;27.56;26.76;90463.06;4975901;28;20050;-69
2022/04/06 11:35:16;;;;;;;30.52;8.40;;;;;;;25.42;28.92;90466.09;4975528;28;20058;-69
2022/04/06 11:37:47;;;;;;;4.68;2.97;;;;;;;25.06;30.65;90465.78;4975500;28;20101;-69
2022/04/06 11:40:17;;;;;;;5.88;4.32;;;;;;;25.75;28.29;90456.31;4975711;28;20570;-70